01:26
Airports
History
Links
Donate
Help keep this website running!
PayPal
Bitcoin
This page is community maintained. The information is intended for PC simulator navigation or reference.
Always use approved charts for navigation.
EDPQ
Schmidgaden
Schmidgaden (EDPQ)
Schmidgaden, Bayern, Germany (92546)
(U)
Lat/Lng:49° 25' 50.97" N / 12° 5' 53.99" E
49.430824 / 12.09833
Elevation:1247'ft / 380mMSL
ID / ICAO:EDPQ
Runways:1
Longest:12-30
Asphalt 515m / 1,690ft
Nearby Weather01:09 GMT 2017-10-20
Nearby weather at ETIH, HOHENFELS AAF located 18.9 nautical miles from EDPQ
Altimeter: 29.98
Visibility: 0.4 statute miles
Wind: 0 knots (from 000°)
Temp: 4°c / 39°f
Humidity: 100.0%

METAR: ETIH 200109Z AUTO 00000KT 0600 FG VV001 04/04 A2998 RMK AO2 VIS 0600V5000 SLP162 RVRNO $

(Powered by phpweather)
Nearby VORs <50NM
Nearby NDBs
Runway 12 / 30
Dimensions:515 x 10.1m 1690' x 33'ft
Surface:Asphalt
Runway 12 [A]Runway 30 [B]
Heading:119°TH 299°TH
Lat:
Lng:
49° 25' 55.05"N
12° 5' 42.66"E
49° 25' 46.88"N
12° 6' 5.31"E
User Notes and Comments
49° 25' 50.97" N / 12° 5' 53.99" E
Distance To
Airport ID:
Nearby Airports
(U) Nittenau Bruck 16.9 NM
EDNM SSE 148°
(U) Weiden 17.2 NM
EDQW N
(C) HOHENFELS AAF 18.9 NM
ETIH ( WX ) SW 218°
(C) GRAFENWOHR AAF 19.8 NM
ETIC ( WX ) NNW 339°
(U) VILSECK AAF 20.4 NM
ETOI NW 313°
(U) Rosenthal Field Ploessen 32.9 NM
EDQP NNW 335°
(C) Tachov 37.2 NM
LKTD NE 47°
VFR Chart
Flight Planning at SkyVector.com